sensor_id;sensor_type;location;lat;lon;timestamp;temperature;humidity
8463;DHT22;4268;52.506;13.462;2023-05-14T00:00:18;14.60;85.30
8463;DHT22;4268;52.506;13.462;2023-05-14T00:02:44;14.50;85.30
8463;DHT22;4268;52.506;13.462;2023-05-14T00:05:09;15.20;85.90
8463;DHT22;4268;52.506;13.462;2023-05-14T00:07:35;14.50;85.00
8463;DHT22;4268;52.506;13.462;2023-05-14T00:10:01;14.50;85.00
8463;DHT22;4268;52.506;13.462;2023-05-14T00:12:26;14.50;85.00
8463;DHT22;4268;52.506;13.462;2023-05-14T00:14:52;14.40;84.80
8463;DHT22;4268;52.506;13.462;2023-05-14T00:17:18;14.40;84.90
8463;DHT22;4268;52.506;13.462;2023-05-14T00:19:44;14.40;85.50
8463;DHT22;4268;52.506;13.462;2023-05-14T00:22:09;14.40;86.60
8463;DHT22;4268;52.506;13.462;2023-05-14T00:24:35;14.70;87.30
8463;DHT22;4268;52.506;13.462;2023-05-14T00:27:02;14.30;86.90
8463;DHT22;4268;52.506;13.462;2023-05-14T00:29:27;14.30;86.90
8463;DHT22;4268;52.506;13.462;2023-05-14T00:31:52;14.30;87.40
8463;DHT22;4268;52.506;13.462;2023-05-14T00:34:18;14.30;87.30
8463;DHT22;4268;52.506;13.462;2023-05-14T00:36:44;14.30;87.30
8463;DHT22;4268;52.506;13.462;2023-05-14T00:39:09;14.40;87.70
8463;DHT22;4268;52.506;13.462;2023-05-14T00:41:35;14.60;88.00
8463;DHT22;4268;52.506;13.462;2023-05-14T00:44:01;14.30;86.60
8463;DHT22;4268;52.506;13.462;2023-05-14T00:46:26;14.30;86.90
8463;DHT22;4268;52.506;13.462;2023-05-14T00:48:52;14.30;87.20
8463;DHT22;4268;52.506;13.462;2023-05-14T00:51:18;14.30;87.30
8463;DHT22;4268;52.506;13.462;2023-05-14T00:53:45;14.30;87.10
8463;DHT22;4268;52.506;13.462;2023-05-14T00:56:11;14.30;86.20
8463;DHT22;4268;52.506;13.462;2023-05-14T00:58:37;14.40;85.80
8463;DHT22;4268;52.506;13.462;2023-05-14T01:01:03;14.30;84.70
8463;DHT22;4268;52.506;13.462;2023-05-14T01:03:29;14.20;84.70
8463;DHT22;4268;52.506;13.462;2023-05-14T01:11:33;14.20;84.20
8463;DHT22;4268;52.506;13.462;2023-05-14T01:14:15;14.20;84.00
8463;DHT22;4268;52.506;13.462;2023-05-14T01:16:44;14.30;84.10
8463;DHT22;4268;52.506;13.462;2023-05-14T01:19:20;14.10;83.60
8463;DHT22;4268;52.506;13.462;2023-05-14T01:21:46;14.10;83.50
8463;DHT22;4268;52.506;13.462;2023-05-14T01:24:12;13.20;82.90
8463;DHT22;4268;52.506;13.462;2023-05-14T01:26:40;14.10;84.00
8463;DHT22;4268;52.506;13.462;2023-05-14T01:29:20;13.80;83.40
8463;DHT22;4268;52.506;13.462;2023-05-14T01:31:48;14.00;83.10
8463;DHT22;4268;52.506;13.462;2023-05-14T01:34:15;14.00;83.10
8463;DHT22;4268;52.506;13.462;2023-05-14T01:36:44;14.10;83.20
8463;DHT22;4268;52.506;13.462;2023-05-14T01:39:12;14.30;83.40
8463;DHT22;4268;52.506;13.462;2023-05-14T01:41:39;14.00;83.20
8463;DHT22;4268;52.506;13.462;2023-05-14T01:44:07;14.00;82.90
8463;DHT22;4268;52.506;13.462;2023-05-14T01:46:33;13.90;82.50
8463;DHT22;4268;52.506;13.462;2023-05-14T01:48:59;13.90;82.50
8463;DHT22;4268;52.506;13.462;2023-05-14T01:51:25;13.90;82.20
8463;DHT22;4268;52.506;13.462;2023-05-14T01:53:50;14.00;82.10
8463;DHT22;4268;52.506;13.462;2023-05-14T01:56:17;14.90;83.20
8463;DHT22;4268;52.506;13.462;2023-05-14T01:58:42;14.00;81.90
8463;DHT22;4268;52.506;13.462;2023-05-14T02:01:08;12.90;81.10
8463;DHT22;4268;52.506;13.462;2023-05-14T02:03:33;13.40;81.50
8463;DHT22;4268;52.506;13.462;2023-05-14T02:05:59;13.90;82.00
8463;DHT22;4268;52.506;13.462;2023-05-14T02:08:24;13.90;82.20
8463;DHT22;4268;52.506;13.462;2023-05-14T02:10:50;13.10;81.40
8463;DHT22;4268;52.506;13.462;2023-05-14T02:13:16;12.90;81.00
8463;DHT22;4268;52.506;13.462;2023-05-14T02:15:41;13.80;81.70
8463;DHT22;4268;52.506;13.462;2023-05-14T02:18:07;12.70;80.60
8463;DHT22;4268;52.506;13.462;2023-05-14T02:20:32;14.00;81.80
8463;DHT22;4268;52.506;13.462;2023-05-14T02:22:58;13.20;81.00
8463;DHT22;4268;52.506;13.462;2023-05-14T02:25:23;14.00;81.80
8463;DHT22;4268;52.506;13.462;2023-05-14T02:27:49;14.00;81.80
8463;DHT22;4268;52.506;13.462;2023-05-14T02:30:15;13.90;81.80
8463;DHT22;4268;52.506;13.462;2023-05-14T02:32:40;14.10;82.00
8463;DHT22;4268;52.506;13.462;2023-05-14T02:35:06;13.40;81.10
8463;DHT22;4268;52.506;13.462;2023-05-14T02:37:31;14.10;82.00
8463;DHT22;4268;52.506;13.462;2023-05-14T02:39:57;14.10;82.00
8463;DHT22;4268;52.506;13.462;2023-05-14T02:42:22;14.10;81.80
8463;DHT22;4268;52.506;13.462;2023-05-14T02:44:48;14.10;81.60
8463;DHT22;4268;52.506;13.462;2023-05-14T02:47:13;14.10;81.80
8463;DHT22;4268;52.506;13.462;2023-05-14T02:49:39;14.10;82.00
8463;DHT22;4268;52.506;13.462;2023-05-14T02:52:05;14.00;82.10
8463;DHT22;4268;52.506;13.462;2023-05-14T02:54:30;14.20;81.50
8463;DHT22;4268;52.506;13.462;2023-05-14T02:56:56;14.20;81.40
8463;DHT22;4268;52.506;13.462;2023-05-14T02:59:23;14.20;81.20
8463;DHT22;4268;52.506;13.462;2023-05-14T03:01:49;14.20;81.10
8463;DHT22;4268;52.506;13.462;2023-05-14T03:04:14;14.20;80.90
8463;DHT22;4268;52.506;13.462;2023-05-14T03:06:40;13.90;80.80
8463;DHT22;4268;52.506;13.462;2023-05-14T03:09:05;14.20;81.10
8463;DHT22;4268;52.506;13.462;2023-05-14T03:11:32;14.20;81.10
8463;DHT22;4268;52.506;13.462;2023-05-14T03:13:57;14.20;81.00
8463;DHT22;4268;52.506;13.462;2023-05-14T03:16:23;14.20;80.90
8463;DHT22;4268;52.506;13.462;2023-05-14T03:18:48;14.20;81.10
8463;DHT22;4268;52.506;13.462;2023-05-14T03:21:14;14.20;81.00
8463;DHT22;4268;52.506;13.462;2023-05-14T03:23:40;14.20;80.80
8463;DHT22;4268;52.506;13.462;2023-05-14T03:26:05;14.30;80.90
8463;DHT22;4268;52.506;13.462;2023-05-14T03:28:31;14.30;80.50
8463;DHT22;4268;52.506;13.462;2023-05-14T03:30:56;13.90;80.40
8463;DHT22;4268;52.506;13.462;2023-05-14T03:33:22;14.20;80.50
8463;DHT22;4268;52.506;13.462;2023-05-14T03:35:48;14.20;79.40
8463;DHT22;4268;52.506;13.462;2023-05-14T03:38:13;14.30;79.40
8463;DHT22;4268;52.506;13.462;2023-05-14T03:40:39;14.30;79.60
8463;DHT22;4268;52.506;13.462;2023-05-14T03:43:04;14.30;79.10
8463;DHT22;4268;52.506;13.462;2023-05-14T03:45:31;14.40;78.60
8463;DHT22;4268;52.506;13.462;2023-05-14T03:47:57;14.40;78.10
8463;DHT22;4268;52.506;13.462;2023-05-14T03:50:22;14.40;77.80
8463;DHT22;4268;52.506;13.462;2023-05-14T03:52:52;14.40;77.70
8463;DHT22;4268;52.506;13.462;2023-05-14T03:55:19;14.50;77.90
8463;DHT22;4268;52.506;13.462;2023-05-14T03:57:45;14.40;78.30
8463;DHT22;4268;52.506;13.462;2023-05-14T04:00:11;14.50;78.20
8463;DHT22;4268;52.506;13.462;2023-05-14T04:02:36;14.50;77.00
8463;DHT22;4268;52.506;13.462;2023-05-14T04:05:02;14.50;77.60
8463;DHT22;4268;52.506;13.462;2023-05-14T04:07:28;14.50;76.70
8463;DHT22;4268;52.506;13.462;2023-05-14T04:09:54;14.60;77.60
8463;DHT22;4268;52.506;13.462;2023-05-14T04:12:19;14.50;77.50
8463;DHT22;4268;52.506;13.462;2023-05-14T04:14:45;14.50;77.20
8463;DHT22;4268;52.506;13.462;2023-05-14T04:17:10;14.60;77.30
8463;DHT22;4268;52.506;13.462;2023-05-14T04:19:35;14.60;77.40
8463;DHT22;4268;52.506;13.462;2023-05-14T04:22:01;14.60;77.50
8463;DHT22;4268;52.506;13.462;2023-05-14T04:24:27;14.60;77.50
8463;DHT22;4268;52.506;13.462;2023-05-14T04:26:52;14.50;77.60
8463;DHT22;4268;52.506;13.462;2023-05-14T04:29:17;14.60;77.80
8463;DHT22;4268;52.506;13.462;2023-05-14T04:31:43;14.30;77.60
8463;DHT22;4268;52.506;13.462;2023-05-14T04:34:09;14.50;78.10
8463;DHT22;4268;52.506;13.462;2023-05-14T04:36:34;14.50;78.40
8463;DHT22;4268;52.506;13.462;2023-05-14T04:39:00;14.50;78.30
8463;DHT22;4268;52.506;13.462;2023-05-14T04:41:25;14.50;78.30
8463;DHT22;4268;52.506;13.462;2023-05-14T04:43:55;14.10;77.90
8463;DHT22;4268;52.506;13.462;2023-05-14T04:46:20;14.40;77.90
8463;DHT22;4268;52.506;13.462;2023-05-14T04:48:46;14.40;77.70
8463;DHT22;4268;52.506;13.462;2023-05-14T04:51:13;14.40;77.70
8463;DHT22;4268;52.506;13.462;2023-05-14T04:53:38;15.40;78.60
8463;DHT22;4268;52.506;13.462;2023-05-14T04:56:04;14.50;78.20
8463;DHT22;4268;52.506;13.462;2023-05-14T04:58:30;14.50;77.50
8463;DHT22;4268;52.506;13.462;2023-05-14T05:00:58;14.40;77.40
8463;DHT22;4268;52.506;13.462;2023-05-14T05:03:24;14.50;77.50
8463;DHT22;4268;52.506;13.462;2023-05-14T05:05:49;14.60;77.20
8463;DHT22;4268;52.506;13.462;2023-05-14T05:08:16;14.70;76.90
8463;DHT22;4268;52.506;13.462;2023-05-14T05:10:41;14.60;77.40
8463;DHT22;4268;52.506;13.462;2023-05-14T05:13:07;14.70;76.80
8463;DHT22;4268;52.506;13.462;2023-05-14T05:15:32;14.90;76.70
8463;DHT22;4268;52.506;13.462;2023-05-14T05:17:58;14.90;76.30
8463;DHT22;4268;52.506;13.462;2023-05-14T05:20:23;14.80;76.10
8463;DHT22;4268;52.506;13.462;2023-05-14T05:22:49;14.80;76.30
8463;DHT22;4268;52.506;13.462;2023-05-14T05:25:15;14.80;76.40
8463;DHT22;4268;52.506;13.462;2023-05-14T05:27:40;14.90;76.60
8463;DHT22;4268;52.506;13.462;2023-05-14T05:30:06;15.00;76.20
8463;DHT22;4268;52.506;13.462;2023-05-14T05:32:32;15.20;76.20
8463;DHT22;4268;52.506;13.462;2023-05-14T05:34:58;15.30;75.80
8463;DHT22;4268;52.506;13.462;2023-05-14T05:37:23;15.40;75.50
8463;DHT22;4268;52.506;13.462;2023-05-14T05:39:49;15.50;75.50
8463;DHT22;4268;52.506;13.462;2023-05-14T05:42:14;15.50;75.40
8463;DHT22;4268;52.506;13.462;2023-05-14T05:44:40;15.50;75.50
8463;DHT22;4268;52.506;13.462;2023-05-14T05:47:05;15.00;74.90
8463;DHT22;4268;52.506;13.462;2023-05-14T05:49:31;15.60;75.20
8463;DHT22;4268;52.506;13.462;2023-05-14T05:51:56;15.70;74.80
8463;DHT22;4268;52.506;13.462;2023-05-14T05:54:22;16.00;75.50
8463;DHT22;4268;52.506;13.462;2023-05-14T05:56:49;16.30;74.40
8463;DHT22;4268;52.506;13.462;2023-05-14T05:59:14;16.30;73.20
8463;DHT22;4268;52.506;13.462;2023-05-14T06:01:40;16.50;73.00
8463;DHT22;4268;52.506;13.462;2023-05-14T06:04:08;16.60;72.80
8463;DHT22;4268;52.506;13.462;2023-05-14T06:06:33;16.60;72.00
8463;DHT22;4268;52.506;13.462;2023-05-14T06:08:59;16.80;71.90
8463;DHT22;4268;52.506;13.462;2023-05-14T06:11:26;16.90;71.70
8463;DHT22;4268;52.506;13.462;2023-05-14T06:13:52;17.10;71.90
8463;DHT22;4268;52.506;13.462;2023-05-14T06:16:17;17.10;71.50
8463;DHT22;4268;52.506;13.462;2023-05-14T06:18:43;17.10;70.50
8463;DHT22;4268;52.506;13.462;2023-05-14T06:21:08;17.00;71.00
8463;DHT22;4268;52.506;13.462;2023-05-14T06:23:33;17.00;71.70
8463;DHT22;4268;52.506;13.462;2023-05-14T06:25:59;16.90;72.20
8463;DHT22;4268;52.506;13.462;2023-05-14T06:28:25;16.60;71.70
8463;DHT22;4268;52.506;13.462;2023-05-14T06:30:50;16.40;72.30
8463;DHT22;4268;52.506;13.462;2023-05-14T06:33:18;16.70;72.10
8463;DHT22;4268;52.506;13.462;2023-05-14T06:35:45;16.70;72.50
8463;DHT22;4268;52.506;13.462;2023-05-14T06:38:10;15.40;70.90
8463;DHT22;4268;52.506;13.462;2023-05-14T06:40:36;16.80;72.30
8463;DHT22;4268;52.506;13.462;2023-05-14T06:43:01;16.90;72.50
8463;DHT22;4268;52.506;13.462;2023-05-14T06:45:27;16.90;72.20
8463;DHT22;4268;52.506;13.462;2023-05-14T06:47:52;16.10;70.90
8463;DHT22;4268;52.506;13.462;2023-05-14T06:50:17;16.90;72.10
8463;DHT22;4268;52.506;13.462;2023-05-14T06:52:43;17.00;71.70
8463;DHT22;4268;52.506;13.462;2023-05-14T06:55:09;17.00;71.90
8463;DHT22;4268;52.506;13.462;2023-05-14T06:57:34;16.90;71.70
8463;DHT22;4268;52.506;13.462;2023-05-14T07:00:00;16.80;72.00
8463;DHT22;4268;52.506;13.462;2023-05-14T07:02:25;16.80;72.40
8463;DHT22;4268;52.506;13.462;2023-05-14T07:04:51;16.70;71.90
8463;DHT22;4268;52.506;13.462;2023-05-14T07:07:16;15.70;70.50
8463;DHT22;4268;52.506;13.462;2023-05-14T07:09:45;16.00;70.40
8463;DHT22;4268;52.506;13.462;2023-05-14T07:12:10;17.30;71.10
8463;DHT22;4268;52.506;13.462;2023-05-14T07:14:36;17.40;71.10
8463;DHT22;4268;52.506;13.462;2023-05-14T07:17:01;17.10;70.70
8463;DHT22;4268;52.506;13.462;2023-05-14T07:19:27;17.60;71.30
8463;DHT22;4268;52.506;13.462;2023-05-14T07:21:56;17.60;71.20
8463;DHT22;4268;52.506;13.462;2023-05-14T07:24:22;17.70;70.40
8463;DHT22;4268;52.506;13.462;2023-05-14T07:26:48;17.70;69.70
8463;DHT22;4268;52.506;13.462;2023-05-14T07:29:13;17.80;70.10
8463;DHT22;4268;52.506;13.462;2023-05-14T07:31:38;18.00;69.80
8463;DHT22;4268;52.506;13.462;2023-05-14T07:34:04;18.30;69.40
8463;DHT22;4268;52.506;13.462;2023-05-14T07:36:30;18.50;68.40
8463;DHT22;4268;52.506;13.462;2023-05-14T07:38:55;19.00;67.80
8463;DHT22;4268;52.506;13.462;2023-05-14T07:41:21;19.10;67.50
8463;DHT22;4268;52.506;13.462;2023-05-14T07:43:46;19.20;66.40
8463;DHT22;4268;52.506;13.462;2023-05-14T07:46:12;19.40;67.60
8463;DHT22;4268;52.506;13.462;2023-05-14T07:48:38;19.30;67.70
8463;DHT22;4268;52.506;13.462;2023-05-14T07:51:03;19.50;66.80
8463;DHT22;4268;52.506;13.462;2023-05-14T07:53:29;19.70;66.00
8463;DHT22;4268;52.506;13.462;2023-05-14T07:55:54;19.90;66.20
8463;DHT22;4268;52.506;13.462;2023-05-14T07:58:20;20.10;64.50
8463;DHT22;4268;52.506;13.462;2023-05-14T08:00:45;20.10;64.10
8463;DHT22;4268;52.506;13.462;2023-05-14T08:03:11;20.00;64.80
8463;DHT22;4268;52.506;13.462;2023-05-14T08:05:36;20.00;64.70
8463;DHT22;4268;52.506;13.462;2023-05-14T08:08:02;20.10;63.90
8463;DHT22;4268;52.506;13.462;2023-05-14T08:10:27;20.30;63.60
8463;DHT22;4268;52.506;13.462;2023-05-14T08:12:53;20.30;63.40
8463;DHT22;4268;52.506;13.462;2023-05-14T08:15:18;20.60;63.40
8463;DHT22;4268;52.506;13.462;2023-05-14T08:17:43;20.80;64.40
8463;DHT22;4268;52.506;13.462;2023-05-14T08:20:09;21.10;62.90
8463;DHT22;4268;52.506;13.462;2023-05-14T08:22:36;21.10;62.40
8463;DHT22;4268;52.506;13.462;2023-05-14T08:25:02;21.30;61.70
8463;DHT22;4268;52.506;13.462;2023-05-14T08:27:28;21.50;61.70
8463;DHT22;4268;52.506;13.462;2023-05-14T08:29:53;21.50;60.90
8463;DHT22;4268;52.506;13.462;2023-05-14T08:32:19;21.60;60.10
8463;DHT22;4268;52.506;13.462;2023-05-14T08:34:44;21.50;59.80
8463;DHT22;4268;52.506;13.462;2023-05-14T08:37:10;21.60;59.60
8463;DHT22;4268;52.506;13.462;2023-05-14T08:39:35;21.80;59.30
8463;DHT22;4268;52.506;13.462;2023-05-14T08:42:05;22.10;59.70
8463;DHT22;4268;52.506;13.462;2023-05-14T08:44:37;22.30;59.00
8463;DHT22;4268;52.506;13.462;2023-05-14T08:47:03;22.50;57.90
8463;DHT22;4268;52.506;13.462;2023-05-14T08:49:42;22.30;59.70
8463;DHT22;4268;52.506;13.462;2023-05-14T08:52:09;22.10;59.70
8463;DHT22;4268;52.506;13.462;2023-05-14T08:54:35;21.80;58.30
8463;DHT22;4268;52.506;13.462;2023-05-14T08:57:03;21.30;59.00
8463;DHT22;4268;52.506;13.462;2023-05-14T08:59:29;20.90;59.30
8463;DHT22;4268;52.506;13.462;2023-05-14T09:01:55;20.60;60.80
8463;DHT22;4268;52.506;13.462;2023-05-14T09:04:23;20.60;61.90
8463;DHT22;4268;52.506;13.462;2023-05-14T09:06:50;20.60;61.90
8463;DHT22;4268;52.506;13.462;2023-05-14T09:09:16;20.80;60.40
8463;DHT22;4268;52.506;13.462;2023-05-14T09:11:46;21.00;59.50
8463;DHT22;4268;52.506;13.462;2023-05-14T09:14:12;19.90;58.90
8463;DHT22;4268;52.506;13.462;2023-05-14T09:16:38;21.10;59.60
8463;DHT22;4268;52.506;13.462;2023-05-14T09:19:06;21.10;59.60
8463;DHT22;4268;52.506;13.462;2023-05-14T09:21:32;21.10;60.20
8463;DHT22;4268;52.506;13.462;2023-05-14T09:23:58;21.10;62.20
8463;DHT22;4268;52.506;13.462;2023-05-14T09:26:25;21.20;61.80
8463;DHT22;4268;52.506;13.462;2023-05-14T09:28:54;21.20;59.40
8463;DHT22;4268;52.506;13.462;2023-05-14T09:31:21;20.80;59.40
8463;DHT22;4268;52.506;13.462;2023-05-14T09:33:50;19.70;58.40
8463;DHT22;4268;52.506;13.462;2023-05-14T09:36:16;20.80;59.60
8463;DHT22;4268;52.506;13.462;2023-05-14T09:38:42;20.70;59.30
8463;DHT22;4268;52.506;13.462;2023-05-14T09:41:07;20.80;59.40
8463;DHT22;4268;52.506;13.462;2023-05-14T09:43:32;20.40;59.00
8463;DHT22;4268;52.506;13.462;2023-05-14T09:45:58;20.50;58.30
8463;DHT22;4268;52.506;13.462;2023-05-14T09:48:24;19.40;56.80
8463;DHT22;4268;52.506;13.462;2023-05-14T09:50:50;20.90;57.80
8463;DHT22;4268;52.506;13.462;2023-05-14T09:53:17;20.40;57.70
8463;DHT22;4268;52.506;13.462;2023-05-14T09:55:45;20.40;57.80
8463;DHT22;4268;52.506;13.462;2023-05-14T09:58:11;20.40;58.60
8463;DHT22;4268;52.506;13.462;2023-05-14T10:00:38;21.60;59.10
8463;DHT22;4268;52.506;13.462;2023-05-14T10:03:07;20.60;57.60
8463;DHT22;4268;52.506;13.462;2023-05-14T10:05:39;20.50;57.70
8463;DHT22;4268;52.506;13.462;2023-05-14T10:08:26;20.60;57.80
8463;DHT22;4268;52.506;13.462;2023-05-14T10:10:54;20.40;58.20
8463;DHT22;4268;52.506;13.462;2023-05-14T10:13:27;20.50;58.70
8463;DHT22;4268;52.506;13.462;2023-05-14T10:16:04;20.70;58.00
8463;DHT22;4268;52.506;13.462;2023-05-14T10:18:38;20.70;56.80
8463;DHT22;4268;52.506;13.462;2023-05-14T10:21:06;22.00;57.30
8463;DHT22;4268;52.506;13.462;2023-05-14T10:23:32;20.40;57.00
8463;DHT22;4268;52.506;13.462;2023-05-14T10:25:59;20.40;57.40
8463;DHT22;4268;52.506;13.462;2023-05-14T10:28:25;20.50;57.70
8463;DHT22;4268;52.506;13.462;2023-05-14T10:30:53;20.50;57.90
8463;DHT22;4268;52.506;13.462;2023-05-14T10:33:19;20.80;57.80
8463;DHT22;4268;52.506;13.462;2023-05-14T10:36:05;21.00;56.80
8463;DHT22;4268;52.506;13.462;2023-05-14T10:38:33;21.00;56.80
8463;DHT22;4268;52.506;13.462;2023-05-14T10:41:09;20.80;57.00
8463;DHT22;4268;52.506;13.462;2023-05-14T10:43:36;20.80;57.60
8463;DHT22;4268;52.506;13.462;2023-05-14T10:46:03;20.80;57.20
8463;DHT22;4268;52.506;13.462;2023-05-14T10:48:29;20.70;56.60
8463;DHT22;4268;52.506;13.462;2023-05-14T10:50:55;20.60;56.90
8463;DHT22;4268;52.506;13.462;2023-05-14T10:53:38;21.30;57.00
8463;DHT22;4268;52.506;13.462;2023-05-14T10:56:12;20.60;56.70
8463;DHT22;4268;52.506;13.462;2023-05-14T10:58:42;20.60;57.00
8463;DHT22;4268;52.506;13.462;2023-05-14T11:03:45;20.20;58.00
8463;DHT22;4268;52.506;13.462;2023-05-14T11:06:12;20.10;58.00
8463;DHT22;4268;52.506;13.462;2023-05-14T11:08:38;20.20;58.00
8463;DHT22;4268;52.506;13.462;2023-05-14T11:11:08;19.90;57.90
8463;DHT22;4268;52.506;13.462;2023-05-14T11:13:34;19.90;58.20
8463;DHT22;4268;52.506;13.462;2023-05-14T11:16:01;19.90;58.70
8463;DHT22;4268;52.506;13.462;2023-05-14T11:18:32;19.90;58.60
8463;DHT22;4268;52.506;13.462;2023-05-14T11:21:06;19.90;58.60
8463;DHT22;4268;52.506;13.462;2023-05-14T11:23:31;20.00;58.70
8463;DHT22;4268;52.506;13.462;2023-05-14T11:25:57;20.10;58.80
8463;DHT22;4268;52.506;13.462;2023-05-14T11:28:23;20.20;58.50
8463;DHT22;4268;52.506;13.462;2023-05-14T11:30:50;20.20;58.50
8463;DHT22;4268;52.506;13.462;2023-05-14T11:33:16;20.30;58.70
8463;DHT22;4268;52.506;13.462;2023-05-14T11:35:42;20.30;58.30
8463;DHT22;4268;52.506;13.462;2023-05-14T11:38:16;20.40;58.30
8463;DHT22;4268;52.506;13.462;2023-05-14T11:40:50;20.40;58.30
8463;DHT22;4268;52.506;13.462;2023-05-14T11:43:17;20.30;59.00
8463;DHT22;4268;52.506;13.462;2023-05-14T11:45:51;20.30;59.40
8463;DHT22;4268;52.506;13.462;2023-05-14T11:48:17;20.30;59.60
8463;DHT22;4268;52.506;13.462;2023-05-14T11:50:47;20.40;59.40
8463;DHT22;4268;52.506;13.462;2023-05-14T11:53:24;20.40;59.00
8463;DHT22;4268;52.506;13.462;2023-05-14T11:55:50;20.50;59.10
8463;DHT22;4268;52.506;13.462;2023-05-14T11:58:17;20.60;59.20
8463;DHT22;4268;52.506;13.462;2023-05-14T12:00:49;20.60;59.20
8463;DHT22;4268;52.506;13.462;2023-05-14T12:03:15;20.70;59.30
8463;DHT22;4268;52.506;13.462;2023-05-14T12:06:00;20.80;59.40
8463;DHT22;4268;52.506;13.462;2023-05-14T12:08:29;21.00;59.00
8463;DHT22;4268;52.506;13.462;2023-05-14T12:10:57;21.00;58.50
8463;DHT22;4268;52.506;13.462;2023-05-14T12:13:27;21.10;58.20
8463;DHT22;4268;52.506;13.462;2023-05-14T12:15:55;21.20;58.20
8463;DHT22;4268;52.506;13.462;2023-05-14T12:18:21;21.30;58.20
8463;DHT22;4268;52.506;13.462;2023-05-14T12:20:50;21.50;58.60
8463;DHT22;4268;52.506;13.462;2023-05-14T12:23:16;21.80;58.20
8463;DHT22;4268;52.506;13.462;2023-05-14T12:25:49;21.90;57.90
8463;DHT22;4268;52.506;13.462;2023-05-14T12:28:16;22.00;58.30
8463;DHT22;4268;52.506;13.462;2023-05-14T12:30:42;21.90;56.20
8463;DHT22;4268;52.506;13.462;2023-05-14T12:33:07;21.60;56.00
8463;DHT22;4268;52.506;13.462;2023-05-14T12:35:33;21.30;55.80
8463;DHT22;4268;52.506;13.462;2023-05-14T12:38:01;21.10;55.50
8463;DHT22;4268;52.506;13.462;2023-05-14T12:40:26;21.00;55.90
8463;DHT22;4268;52.506;13.462;2023-05-14T12:42:52;20.70;55.60
8463;DHT22;4268;52.506;13.462;2023-05-14T12:45:17;21.00;55.10
8463;DHT22;4268;52.506;13.462;2023-05-14T12:47:43;21.00;55.50
8463;DHT22;4268;52.506;13.462;2023-05-14T12:50:08;20.90;55.90
8463;DHT22;4268;52.506;13.462;2023-05-14T12:52:34;20.90;55.70
8463;DHT22;4268;52.506;13.462;2023-05-14T12:55:00;20.90;55.20
8463;DHT22;4268;52.506;13.462;2023-05-14T12:57:25;21.00;55.00
8463;DHT22;4268;52.506;13.462;2023-05-14T12:59:52;20.90;54.70
8463;DHT22;4268;52.506;13.462;2023-05-14T13:02:17;21.00;54.90
8463;DHT22;4268;52.506;13.462;2023-05-14T13:04:43;21.10;55.00
8463;DHT22;4268;52.506;13.462;2023-05-14T13:07:09;21.10;55.00
8463;DHT22;4268;52.506;13.462;2023-05-14T13:09:35;21.10;54.10
8463;DHT22;4268;52.506;13.462;2023-05-14T13:12:00;20.90;53.90
8463;DHT22;4268;52.506;13.462;2023-05-14T13:14:26;20.80;54.30
8463;DHT22;4268;52.506;13.462;2023-05-14T13:16:51;20.70;54.20
8463;DHT22;4268;52.506;13.462;2023-05-14T13:19:16;20.60;54.40
8463;DHT22;4268;52.506;13.462;2023-05-14T13:21:42;20.50;54.50
8463;DHT22;4268;52.506;13.462;2023-05-14T13:24:08;20.50;54.60
8463;DHT22;4268;52.506;13.462;2023-05-14T13:26:36;20.50;54.50
8463;DHT22;4268;52.506;13.462;2023-05-14T13:29:02;20.60;55.00
8463;DHT22;4268;52.506;13.462;2023-05-14T13:31:28;20.60;54.60
8463;DHT22;4268;52.506;13.462;2023-05-14T13:33:53;20.70;54.70
8463;DHT22;4268;52.506;13.462;2023-05-14T13:36:19;20.80;54.80
8463;DHT22;4268;52.506;13.462;2023-05-14T13:38:44;20.80;55.10
8463;DHT22;4268;52.506;13.462;2023-05-14T13:41:10;20.90;55.10
8463;DHT22;4268;52.506;13.462;2023-05-14T13:43:36;20.90;54.70
8463;DHT22;4268;52.506;13.462;2023-05-14T13:46:02;20.90;54.40
8463;DHT22;4268;52.506;13.462;2023-05-14T13:48:29;21.00;54.60
8463;DHT22;4268;52.506;13.462;2023-05-14T13:50:55;21.00;54.20
8463;DHT22;4268;52.506;13.462;2023-05-14T13:53:22;21.10;54.30
8463;DHT22;4268;52.506;13.462;2023-05-14T13:55:49;21.20;54.20
8463;DHT22;4268;52.506;13.462;2023-05-14T13:58:15;21.10;56.60
8463;DHT22;4268;52.506;13.462;2023-05-14T14:00:40;21.10;55.60
8463;DHT22;4268;52.506;13.462;2023-05-14T14:03:07;21.20;57.20
8463;DHT22;4268;52.506;13.462;2023-05-14T14:05:35;21.10;56.00
8463;DHT22;4268;52.506;13.462;2023-05-14T14:08:01;21.10;56.00
8463;DHT22;4268;52.506;13.462;2023-05-14T14:10:27;21.10;56.20
8463;DHT22;4268;52.506;13.462;2023-05-14T14:12:52;21.00;56.40
8463;DHT22;4268;52.506;13.462;2023-05-14T14:15:18;20.80;56.20
8463;DHT22;4268;52.506;13.462;2023-05-14T14:17:43;20.80;56.60
8463;DHT22;4268;52.506;13.462;2023-05-14T14:20:09;20.90;56.80
8463;DHT22;4268;52.506;13.462;2023-05-14T14:22:35;21.00;57.00
8463;DHT22;4268;52.506;13.462;2023-05-14T14:25:01;21.10;57.10
8463;DHT22;4268;52.506;13.462;2023-05-14T14:27:27;21.10;56.50
8463;DHT22;4268;52.506;13.462;2023-05-14T14:29:52;21.20;56.40
8463;DHT22;4268;52.506;13.462;2023-05-14T14:32:18;21.20;55.70
8463;DHT22;4268;52.506;13.462;2023-05-14T14:34:44;21.20;56.00
8463;DHT22;4268;52.506;13.462;2023-05-14T14:37:10;21.10;55.00
8463;DHT22;4268;52.506;13.462;2023-05-14T14:39:35;21.20;55.20
8463;DHT22;4268;52.506;13.462;2023-05-14T14:42:01;21.20;55.20
8463;DHT22;4268;52.506;13.462;2023-05-14T14:44:26;21.20;54.50
8463;DHT22;4268;52.506;13.462;2023-05-14T14:46:52;21.10;54.50
8463;DHT22;4268;52.506;13.462;2023-05-14T14:49:17;21.20;54.60
8463;DHT22;4268;52.506;13.462;2023-05-14T14:51:43;21.30;55.00
8463;DHT22;4268;52.506;13.462;2023-05-14T14:54:08;21.20;54.10
8463;DHT22;4268;52.506;13.462;2023-05-14T14:56:34;21.20;53.70
8463;DHT22;4268;52.506;13.462;2023-05-14T14:59:00;21.10;53.80
8463;DHT22;4268;52.506;13.462;2023-05-14T15:01:25;21.10;53.70
8463;DHT22;4268;52.506;13.462;2023-05-14T15:03:51;21.10;54.10
8463;DHT22;4268;52.506;13.462;2023-05-14T15:06:16;21.10;54.10
8463;DHT22;4268;52.506;13.462;2023-05-14T15:08:42;21.10;54.10
8463;DHT22;4268;52.506;13.462;2023-05-14T15:11:07;21.20;55.10
8463;DHT22;4268;52.506;13.462;2023-05-14T15:13:33;20.90;54.20
8463;DHT22;4268;52.506;13.462;2023-05-14T15:15:58;20.80;54.30
8463;DHT22;4268;52.506;13.462;2023-05-14T15:18:24;20.70;54.60
8463;DHT22;4268;52.506;13.462;2023-05-14T15:20:50;20.60;54.80
8463;DHT22;4268;52.506;13.462;2023-05-14T15:23:17;20.60;55.10
8463;DHT22;4268;52.506;13.462;2023-05-14T15:25:43;20.50;54.80
8463;DHT22;4268;52.506;13.462;2023-05-14T15:28:08;20.40;55.00
8463;DHT22;4268;52.506;13.462;2023-05-14T15:30:34;20.30;55.30
8463;DHT22;4268;52.506;13.462;2023-05-14T15:32:59;20.30;55.30
8463;DHT22;4268;52.506;13.462;2023-05-14T15:35:25;20.20;55.50
8463;DHT22;4268;52.506;13.462;2023-05-14T15:37:53;20.30;55.60
8463;DHT22;4268;52.506;13.462;2023-05-14T15:40:19;20.20;55.60
8463;DHT22;4268;52.506;13.462;2023-05-14T15:42:44;20.20;55.70
8463;DHT22;4268;52.506;13.462;2023-05-14T15:45:12;20.20;56.00
8463;DHT22;4268;52.506;13.462;2023-05-14T15:47:38;20.20;55.50